createdAt,value
2016-12-10T00:00:28.934Z,0
2016-12-10T00:01:29.570Z,0
2016-12-10T00:02:29.576Z,0
2016-12-10T00:03:29.267Z,0
2016-12-10T00:04:30.412Z,0
2016-12-10T00:05:29.595Z,0
2016-12-10T00:06:30.190Z,0
2016-12-10T00:07:28.983Z,0
2016-12-10T00:08:28.990Z,0
2016-12-10T00:09:28.993Z,0
2016-12-10T00:10:29.315Z,0
2016-12-10T00:11:29.323Z,0
2016-12-10T00:12:29.377Z,0
2016-12-10T00:13:29.334Z,0
2016-12-10T00:14:29.336Z,0
2016-12-10T00:15:31.175Z,0
2016-12-10T00:16:29.040Z,0
2016-12-10T00:17:30.652Z,0
2016-12-10T00:18:29.053Z,0
2016-12-10T00:19:29.429Z,0
2016-12-10T00:20:29.698Z,0
2016-12-10T00:21:29.525Z,0
2016-12-10T00:22:29.704Z,0
2016-12-10T00:23:29.715Z,0
2016-12-10T00:24:29.457Z,0
2016-12-10T00:25:29.409Z,0
2016-12-10T00:26:29.469Z,0
2016-12-10T00:27:29.423Z,0
2016-12-10T00:28:31.083Z,0
2016-12-10T00:29:29.491Z,0
2016-12-10T00:30:29.814Z,0
2016-12-10T00:31:29.444Z,0
2016-12-10T00:32:29.546Z,0
2016-12-10T00:33:29.475Z,0
2016-12-10T00:34:29.158Z,0
2016-12-10T00:35:30.194Z,0
2016-12-10T00:36:29.487Z,0
2016-12-10T00:37:29.725Z,0
2016-12-10T00:38:29.191Z,0
2016-12-10T00:39:29.818Z,0
2016-12-10T00:40:29.515Z,0
2016-12-10T00:41:29.208Z,0
2016-12-10T00:42:29.523Z,0
2016-12-10T00:43:29.224Z,0
2016-12-10T00:44:29.590Z,0
2016-12-10T00:45:29.548Z,0
2016-12-10T00:46:30.345Z,0
2016-12-10T00:47:29.562Z,0
2016-12-10T00:48:30.629Z,0
2016-12-10T00:49:29.575Z,0
2016-12-10T00:50:29.513Z,0
2016-12-10T00:51:29.331Z,0
2016-12-10T00:52:29.906Z,0
2016-12-10T00:53:29.290Z,0
2016-12-10T00:54:28.982Z,0
2016-12-10T00:55:29.922Z,0
2016-12-10T00:56:29.338Z,0
2016-12-10T00:57:29.308Z,0
2016-12-10T00:58:29.945Z,0
2016-12-10T00:59:29.022Z,0
2016-12-10T01:00:29.698Z,0
2016-12-10T01:01:30.339Z,0
2016-12-10T01:02:29.351Z,0
2016-12-10T01:03:29.354Z,0
2016-12-10T01:04:29.673Z,0
2016-12-10T01:05:29.679Z,0
2016-12-10T01:06:29.376Z,0
2016-12-10T01:07:29.079Z,0
2016-12-10T01:08:29.693Z,0
2016-12-10T01:09:29.441Z,0
2016-12-10T01:10:29.100Z,0
2016-12-10T01:11:29.770Z,0
2016-12-10T01:12:29.102Z,0
2016-12-10T01:13:30.043Z,0
2016-12-10T01:14:29.429Z,0
2016-12-10T01:15:29.746Z,0
2016-12-10T01:16:30.116Z,0
2016-12-10T01:17:29.479Z,0
2016-12-10T01:18:29.866Z,0
2016-12-10T01:19:30.317Z,0
2016-12-10T01:20:29.516Z,0
2016-12-10T01:21:30.102Z,0
2016-12-10T01:22:30.105Z,0
2016-12-10T01:23:29.797Z,0
2016-12-10T01:24:29.542Z,0
2016-12-10T01:25:29.815Z,0
2016-12-10T01:26:29.536Z,0
2016-12-10T01:27:30.168Z,0
2016-12-10T01:28:29.526Z,0
2016-12-10T01:29:29.890Z,0
2016-12-10T01:30:30.369Z,0
2016-12-10T01:31:29.542Z,0
2016-12-10T01:32:30.373Z,0
2016-12-10T01:33:29.952Z,0
2016-12-10T01:34:29.919Z,0
2016-12-10T01:35:29.253Z,0
2016-12-10T01:36:30.196Z,0
2016-12-10T01:37:29.992Z,0
2016-12-10T01:38:29.587Z,0
2016-12-10T01:39:29.955Z,0
2016-12-10T01:40:29.914Z,0
2016-12-10T01:41:29.602Z,0
2016-12-10T01:42:29.922Z,0
2016-12-10T01:43:31.122Z,0
2016-12-10T01:44:30.302Z,0
2016-12-10T01:45:30.640Z,0
2016-12-10T01:46:30.264Z,0
2016-12-10T01:47:30.273Z,0
2016-12-10T01:48:29.962Z,0
2016-12-10T01:49:29.703Z,0
2016-12-10T01:50:29.400Z,0
2016-12-10T01:51:29.979Z,0
2016-12-10T01:52:30.290Z,0
2016-12-10T01:53:30.359Z,0
2016-12-10T01:54:29.751Z,0
2016-12-10T01:55:29.692Z,0
2016-12-10T01:56:30.015Z,0
2016-12-10T01:57:29.399Z,0
2016-12-10T01:58:29.714Z,0
2016-12-10T01:59:30.353Z,0
2016-12-10T02:00:29.725Z,0
2016-12-10T02:01:29.733Z,0
2016-12-10T02:02:29.747Z,0
2016-12-10T02:03:30.738Z,0
2016-12-10T02:04:29.751Z,0
2016-12-10T02:05:30.147Z,0
2016-12-10T02:06:29.769Z,0
2016-12-10T02:07:29.770Z,0
2016-12-10T02:08:30.403Z,0
2016-12-10T02:09:29.784Z,0
2016-12-10T02:10:29.791Z,0
2016-12-10T02:11:30.166Z,0
2016-12-10T02:12:30.117Z,0
2016-12-10T02:13:29.809Z,0
2016-12-10T02:14:31.229Z,0
2016-12-10T02:15:30.141Z,0
2016-12-10T02:16:30.535Z,0
2016-12-10T02:17:29.836Z,0
2016-12-10T02:18:30.520Z,0
2016-12-10T02:19:30.162Z,0
2016-12-10T02:20:30.203Z,0
2016-12-10T02:21:30.178Z,0
2016-12-10T02:22:29.869Z,0
2016-12-10T02:23:30.392Z,0
2016-12-10T02:24:29.622Z,0
2016-12-10T02:25:31.488Z,0
2016-12-10T02:26:29.893Z,0
2016-12-10T02:27:31.155Z,0
2016-12-10T02:28:29.904Z,0
2016-12-10T02:29:30.535Z,0
2016-12-10T02:30:30.287Z,0
2016-12-10T02:31:30.552Z,0
2016-12-10T02:32:29.932Z,0
2016-12-10T02:33:30.254Z,0
2016-12-10T02:34:29.995Z,0
2016-12-10T02:35:30.260Z,0
2016-12-10T02:36:32.256Z,0
2016-12-10T02:37:30.591Z,0
2016-12-10T02:38:31.631Z,0
2016-12-10T02:39:30.593Z,0
2016-12-10T02:40:30.297Z,0
2016-12-10T02:41:29.988Z,0
2016-12-10T02:42:30.621Z,0
2016-12-10T02:43:30.364Z,0
2016-12-10T02:44:30.003Z,0
2016-12-10T02:45:30.373Z,0
2016-12-10T02:46:30.646Z,0
2016-12-10T02:47:30.342Z,0
2016-12-10T02:48:30.035Z,0
2016-12-10T02:49:31.852Z,0
2016-12-10T02:50:30.718Z,0
2016-12-10T02:51:30.366Z,0
2016-12-10T02:52:30.677Z,0
2016-12-10T02:53:30.167Z,0
2016-12-10T02:54:30.072Z,0
2016-12-10T02:55:30.388Z,0
2016-12-10T02:56:30.715Z,0
2016-12-10T02:57:30.453Z,0
2016-12-10T02:58:30.457Z,0
2016-12-10T02:59:29.791Z,0
2016-12-10T03:00:30.421Z,0
2016-12-10T03:01:30.476Z,0
2016-12-10T03:02:30.482Z,0
2016-12-10T03:03:30.147Z,0
2016-12-10T03:04:30.504Z,0
2016-12-10T03:05:30.452Z,0
2016-12-10T03:06:30.460Z,0
2016-12-10T03:07:30.184Z,0
2016-12-10T03:08:30.161Z,0
2016-12-10T03:09:31.492Z,0
2016-12-10T03:10:30.802Z,0
2016-12-10T03:11:30.425Z,0
2016-12-10T03:12:30.493Z,0
2016-12-10T03:13:30.498Z,0
2016-12-10T03:14:30.197Z,0
2016-12-10T03:15:30.925Z,0
2016-12-10T03:16:30.839Z,0
2016-12-10T03:17:30.560Z,0
2016-12-10T03:18:30.546Z,0
2016-12-10T03:19:30.328Z,0
2016-12-10T03:20:31.985Z,0
2016-12-10T03:21:30.605Z,0
2016-12-10T03:22:30.902Z,0
2016-12-10T03:23:30.613Z,0
2016-12-10T03:24:30.259Z,0
2016-12-10T03:25:30.585Z,0
2016-12-10T03:26:30.633Z,0
2016-12-10T03:27:30.592Z,0
2016-12-10T03:28:30.648Z,0
2016-12-10T03:29:30.917Z,0
2016-12-10T03:30:30.349Z,0
2016-12-10T03:31:30.618Z,0
2016-12-10T03:32:30.613Z,0
2016-12-10T03:33:31.468Z,0
2016-12-10T03:34:30.634Z,0
2016-12-10T03:35:30.692Z,0
2016-12-10T03:36:30.023Z,0
2016-12-10T03:37:30.649Z,0
2016-12-10T03:38:30.664Z,0
2016-12-10T03:39:30.664Z,0
2016-12-10T03:40:30.686Z,0
2016-12-10T03:41:30.054Z,0
2016-12-10T03:42:30.061Z,0
2016-12-10T03:43:30.386Z,0
2016-12-10T03:44:31.997Z,0
2016-12-10T03:45:31.032Z,0
2016-12-10T03:46:30.761Z,0
2016-12-10T03:47:30.537Z,0
2016-12-10T03:48:30.300Z,0
2016-12-10T03:49:30.467Z,0
2016-12-10T03:50:30.737Z,0
2016-12-10T03:51:30.426Z,0
2016-12-10T03:52:30.746Z,0
2016-12-10T03:53:30.753Z,0
2016-12-10T03:54:30.448Z,0
2016-12-10T03:55:30.453Z,0
2016-12-10T03:56:30.460Z,0
2016-12-10T03:57:31.088Z,0
2016-12-10T03:58:30.784Z,0
2016-12-10T03:59:30.162Z,0
2016-12-10T04:00:31.111Z,0
2016-12-10T04:01:30.804Z,0
2016-12-10T04:02:30.818Z,0
2016-12-10T04:03:30.825Z,0
2016-12-10T04:04:31.320Z,0
2016-12-10T04:05:30.510Z,0
2016-12-10T04:06:31.073Z,0
2016-12-10T04:07:31.227Z,0
2016-12-10T04:08:31.156Z,0
2016-12-10T04:09:31.166Z,0
2016-12-10T04:10:30.284Z,0
2016-12-10T04:11:30.549Z,0
2016-12-10T04:12:31.185Z,0
2016-12-10T04:13:30.907Z,0
2016-12-10T04:14:30.567Z,0
2016-12-10T04:15:32.188Z,0
2016-12-10T04:16:31.215Z,0
2016-12-10T04:17:31.821Z,0
2016-12-10T04:18:30.932Z,0
2016-12-10T04:19:30.930Z,0
2016-12-10T04:20:30.605Z,0
2016-12-10T04:21:30.922Z,0
2016-12-10T04:22:30.618Z,0
2016-12-10T04:23:30.675Z,0
2016-12-10T04:24:31.259Z,0
2016-12-10T04:25:30.946Z,0
2016-12-10T04:26:30.743Z,0
2016-12-10T04:27:30.959Z,0
2016-12-10T04:28:32.575Z,0
2016-12-10T04:29:30.970Z,0
2016-12-10T04:30:30.667Z,0
2016-12-10T04:31:31.350Z,0
2016-12-10T04:32:30.989Z,0
2016-12-10T04:33:31.712Z,0
2016-12-10T04:34:31.009Z,0
2016-12-10T04:35:31.367Z,0
2016-12-10T04:36:31.018Z,0
2016-12-10T04:37:31.028Z,0
2016-12-10T04:38:31.027Z,0
2016-12-10T04:39:30.774Z,0
2016-12-10T04:40:31.354Z,0
2016-12-10T04:41:31.360Z,0
2016-12-10T04:42:30.796Z,0
2016-12-10T04:43:30.747Z,0
2016-12-10T04:44:31.070Z,0
2016-12-10T04:45:31.486Z,0
2016-12-10T04:46:31.369Z,0
2016-12-10T04:47:31.091Z,0
2016-12-10T04:48:31.546Z,0
2016-12-10T04:49:31.095Z,0
2016-12-10T04:50:31.422Z,0
2016-12-10T04:51:30.489Z,0
2016-12-10T04:52:31.429Z,0
2016-12-10T04:53:31.122Z,0
2016-12-10T04:54:30.817Z,0
2016-12-10T04:55:30.823Z,0
2016-12-10T04:56:30.823Z,0
2016-12-10T04:57:32.001Z,0
2016-12-10T04:58:31.153Z,0
2016-12-10T04:59:32.296Z,0
2016-12-10T05:00:30.853Z,0
2016-12-10T05:01:31.473Z,0
2016-12-10T05:02:31.543Z,0
2016-12-10T05:03:30.562Z,0
2016-12-10T05:04:31.190Z,0
2016-12-10T05:05:31.513Z,0
2016-12-10T05:06:30.888Z,0
2016-12-10T05:07:31.207Z,0
2016-12-10T05:08:31.780Z,0
2016-12-10T05:09:31.223Z,0
2016-12-10T05:10:31.232Z,0
2016-12-10T05:11:31.235Z,0
2016-12-10T05:12:32.127Z,0
2016-12-10T05:13:31.296Z,0
2016-12-10T05:14:31.563Z,0
2016-12-10T05:15:30.946Z,0
2016-12-10T05:16:31.004Z,0
2016-12-10T05:17:31.013Z,0
2016-12-10T05:18:31.284Z,0
2016-12-10T05:19:31.335Z,0
2016-12-10T05:20:31.290Z,0
2016-12-10T05:21:31.297Z,0
2016-12-10T05:22:31.310Z,0
2016-12-10T05:23:32.211Z,0
2016-12-10T05:24:31.049Z,0
2016-12-10T05:25:31.323Z,0
2016-12-10T05:26:31.014Z,0
2016-12-10T05:27:31.337Z,0
2016-12-10T05:28:31.658Z,0
2016-12-10T05:29:31.349Z,0
2016-12-10T05:30:31.405Z,0
2016-12-10T05:31:30.780Z,0
2016-12-10T05:32:30.950Z,0
2016-12-10T05:33:31.434Z,0
2016-12-10T05:34:32.326Z,0
2016-12-10T05:35:31.695Z,0
2016-12-10T05:36:31.092Z,0
2016-12-10T05:37:31.447Z,0
2016-12-10T05:38:31.713Z,0
2016-12-10T05:39:31.407Z,0
2016-12-10T05:40:31.727Z,0
2016-12-10T05:41:31.471Z,0
2016-12-10T05:42:31.791Z,0
2016-12-10T05:43:31.176Z,0
2016-12-10T05:44:31.451Z,0
2016-12-10T05:45:31.836Z,0
2016-12-10T05:46:31.764Z,0
2016-12-10T05:47:30.984Z,0
2016-12-10T05:48:31.487Z,0
2016-12-10T05:49:31.162Z,0
2016-12-10T05:50:30.904Z,0
2016-12-10T05:51:31.795Z,0
2016-12-10T05:52:31.490Z,0
2016-12-10T05:53:31.494Z,0
2016-12-10T05:54:32.791Z,0
2016-12-10T05:55:31.560Z,0
2016-12-10T05:56:32.192Z,0
2016-12-10T05:57:31.209Z,0
2016-12-10T05:58:33.518Z,0
2016-12-10T05:59:31.532Z,0
2016-12-10T06:00:31.538Z,0
2016-12-10T06:01:31.546Z,0
2016-12-10T06:02:31.547Z,0
2016-12-10T06:03:31.865Z,0
2016-12-10T06:04:31.617Z,0
2016-12-10T06:05:31.566Z,0
2016-12-10T06:06:31.892Z,0
2016-12-10T06:07:31.994Z,0
2016-12-10T06:08:31.319Z,0
2016-12-10T06:09:32.916Z,0
2016-12-10T06:10:31.288Z,0
2016-12-10T06:11:31.658Z,0
2016-12-10T06:12:31.331Z,0
2016-12-10T06:13:31.303Z,0
2016-12-10T06:14:31.942Z,0
2016-12-10T06:15:31.007Z,0
2016-12-10T06:16:31.325Z,0
2016-12-10T06:17:31.639Z,0
2016-12-10T06:18:31.649Z,0
2016-12-10T06:19:31.653Z,0
2016-12-10T06:20:32.910Z,0
2016-12-10T06:21:31.039Z,0
2016-12-10T06:22:31.675Z,0
2016-12-10T06:23:31.362Z,0
2016-12-10T06:24:31.736Z,0
2016-12-10T06:25:31.377Z,0
2016-12-10T06:26:32.014Z,0
2016-12-10T06:27:31.392Z,0
2016-12-10T06:28:31.708Z,0
2016-12-10T06:29:31.767Z,0
2016-12-10T06:30:31.720Z,0
2016-12-10T06:31:33.097Z,0
2016-12-10T06:32:32.040Z,0
2016-12-10T06:33:31.888Z,0
2016-12-10T06:34:31.129Z,0
2016-12-10T06:35:31.127Z,0
2016-12-10T06:36:32.119Z,0
2016-12-10T06:37:31.451Z,0
2016-12-10T06:38:31.458Z,0
2016-12-10T06:39:31.149Z,0
2016-12-10T06:40:31.472Z,0
2016-12-10T06:41:31.476Z,0
2016-12-10T06:42:32.831Z,0
2016-12-10T06:43:32.116Z,0
2016-12-10T06:44:31.809Z,0
2016-12-10T06:45:31.504Z,0
2016-12-10T06:46:32.138Z,0
2016-12-10T06:47:31.828Z,0
2016-12-10T06:48:31.881Z,0
2016-12-10T06:49:31.842Z,0
2016-12-10T06:50:31.631Z,0
2016-12-10T06:51:31.537Z,0
2016-12-10T06:52:31.909Z,0
2016-12-10T06:53:32.963Z,0
2016-12-10T06:54:31.555Z,0
2016-12-10T06:55:31.900Z,0
2016-12-10T06:56:31.256Z,0
2016-12-10T06:57:31.888Z,0
2016-12-10T06:58:31.581Z,0
2016-12-10T06:59:31.952Z,0
2016-12-10T07:00:31.275Z,0
2016-12-10T07:01:31.963Z,0
2016-12-10T07:02:31.916Z,0
2016-12-10T07:03:31.925Z,0
2016-12-10T07:04:32.782Z,0
2016-12-10T07:05:31.985Z,4
2016-12-10T07:06:31.635Z,4
2016-12-10T07:07:31.948Z,4
2016-12-10T07:08:32.270Z,0
2016-12-10T07:09:31.649Z,0
2016-12-10T07:10:31.963Z,4
2016-12-10T07:11:31.664Z,4
2016-12-10T07:12:31.361Z,4
2016-12-10T07:13:32.301Z,4
2016-12-10T07:14:32.993Z,4
2016-12-10T07:15:32.491Z,4
2016-12-10T07:16:31.693Z,4
2016-12-10T07:17:33.671Z,8
2016-12-10T07:18:31.704Z,4
2016-12-10T07:19:32.734Z,8
2016-12-10T07:20:32.030Z,4
2016-12-10T07:21:32.039Z,8
2016-12-10T07:22:32.093Z,8
2016-12-10T07:23:32.050Z,12
2016-12-10T07:24:32.053Z,8
2016-12-10T07:25:32.059Z,12
2016-12-10T07:26:31.853Z,12
2016-12-10T07:27:31.813Z,12
2016-12-10T07:28:31.455Z,16
2016-12-10T07:29:31.782Z,16
2016-12-10T07:30:32.230Z,16
2016-12-10T07:31:32.095Z,16
2016-12-10T07:32:32.156Z,16
2016-12-10T07:33:32.110Z,20
2016-12-10T07:34:32.480Z,20
2016-12-10T07:35:31.859Z,24
2016-12-10T07:36:31.503Z,24
2016-12-10T07:37:32.137Z,28
2016-12-10T07:38:32.458Z,28
2016-12-10T07:39:33.689Z,36
2016-12-10T07:40:32.204Z,36
2016-12-10T07:41:32.934Z,36
2016-12-10T07:42:31.851Z,44
2016-12-10T07:43:32.166Z,44
2016-12-10T07:44:32.227Z,52
2016-12-10T07:45:31.921Z,52
2016-12-10T07:46:32.192Z,60
2016-12-10T07:47:32.251Z,68
2016-12-10T07:48:31.578Z,72
2016-12-10T07:49:31.583Z,80
2016-12-10T07:50:33.907Z,84
2016-12-10T07:51:32.561Z,92
2016-12-10T07:52:32.630Z,92
2016-12-10T07:53:32.595Z,92
2016-12-10T07:54:32.241Z,96
2016-12-10T07:55:31.935Z,100
2016-12-10T07:56:31.940Z,100
2016-12-10T07:57:32.255Z,100
2016-12-10T07:58:31.688Z,104
2016-12-10T07:59:32.007Z,116
2016-12-10T08:00:31.965Z,120
2016-12-10T08:01:33.175Z,128
2016-12-10T08:02:31.976Z,132
2016-12-10T08:03:32.343Z,136
2016-12-10T08:04:32.349Z,140
2016-12-10T08:05:32.041Z,148
2016-12-10T08:06:32.004Z,156
2016-12-10T08:07:32.989Z,164
2016-12-10T08:08:32.374Z,168
2016-12-10T08:09:31.755Z,180
2016-12-10T08:10:32.702Z,188
2016-12-10T08:11:31.720Z,200
2016-12-10T08:12:33.185Z,208
2016-12-10T08:13:32.795Z,220
2016-12-10T08:14:32.366Z,232
2016-12-10T08:15:32.683Z,248
2016-12-10T08:16:33.183Z,264
2016-12-10T08:17:32.382Z,272
2016-12-10T08:18:32.388Z,288
2016-12-10T08:19:32.394Z,304
2016-12-10T08:20:32.090Z,316
2016-12-10T08:21:32.770Z,340
2016-12-10T08:22:32.099Z,360
2016-12-10T08:23:32.623Z,376
2016-12-10T08:24:32.119Z,392
2016-12-10T08:25:34.502Z,404
2016-12-10T08:26:32.802Z,404
2016-12-10T08:27:33.354Z,400
2016-12-10T08:28:47.019Z,388
2016-12-10T08:29:31.836Z,384
2016-12-10T08:30:32.157Z,372
2016-12-10T08:31:32.475Z,368
2016-12-10T08:32:31.849Z,356
2016-12-10T08:33:31.914Z,348
2016-12-10T08:34:32.493Z,340
2016-12-10T08:35:32.184Z,340
2016-12-10T08:36:32.194Z,344
2016-12-10T08:37:32.514Z,344
2016-12-10T08:38:32.757Z,368
2016-12-10T08:39:31.902Z,384
2016-12-10T08:40:32.895Z,364
2016-12-10T08:41:32.849Z,336
2016-12-10T08:42:32.859Z,324
2016-12-10T08:43:32.242Z,316
2016-12-10T08:44:32.293Z,312
2016-12-10T08:45:32.557Z,312
2016-12-10T08:46:32.577Z,324
2016-12-10T08:47:33.991Z,340
2016-12-10T08:48:32.633Z,364
2016-12-10T08:49:32.932Z,388
2016-12-10T08:50:32.599Z,412
2016-12-10T08:51:32.658Z,428
2016-12-10T08:52:33.023Z,444
2016-12-10T08:53:32.983Z,452
2016-12-10T08:54:32.624Z,460
2016-12-10T08:55:32.728Z,468
2016-12-10T08:56:32.377Z,472
2016-12-10T08:57:32.741Z,472
2016-12-10T08:58:33.759Z,468
2016-12-10T08:59:32.349Z,472
2016-12-10T09:00:32.766Z,564
2016-12-10T09:01:32.100Z,532
2016-12-10T09:02:33.662Z,464
2016-12-10T09:03:32.377Z,456
2016-12-10T09:04:33.004Z,452
2016-12-10T09:05:32.702Z,452
2016-12-10T09:06:32.444Z,456
2016-12-10T09:07:32.712Z,460
2016-12-10T09:08:32.727Z,468
2016-12-10T09:09:32.964Z,480
2016-12-10T09:10:32.419Z,484
2016-12-10T09:11:32.712Z,492
2016-12-10T09:12:33.558Z,548
2016-12-10T09:13:33.970Z,528
2016-12-10T09:14:32.759Z,560
2016-12-10T09:15:32.762Z,708
2016-12-10T09:16:32.780Z,620
2016-12-10T09:17:33.080Z,568
2016-12-10T09:18:32.161Z,552
2016-12-10T09:19:32.245Z,548
2016-12-10T09:20:32.171Z,548
2016-12-10T09:21:32.805Z,536
2016-12-10T09:22:33.126Z,532
2016-12-10T09:23:32.899Z,532
2016-12-10T09:24:33.629Z,532
2016-12-10T09:25:32.522Z,532
2016-12-10T09:26:32.579Z,528
2016-12-10T09:27:32.536Z,520
2016-12-10T09:28:32.538Z,508
2016-12-10T09:29:32.861Z,492
2016-12-10T09:30:32.870Z,472
2016-12-10T09:31:32.559Z,464
2016-12-10T09:32:33.251Z,464
2016-12-10T09:33:34.185Z,464
2016-12-10T09:34:32.587Z,460
2016-12-10T09:35:33.371Z,456
2016-12-10T09:36:32.913Z,448
2016-12-10T09:37:32.609Z,444
2016-12-10T09:38:32.924Z,436
2016-12-10T09:39:32.720Z,424
2016-12-10T09:40:32.998Z,416
2016-12-10T09:41:32.981Z,412
2016-12-10T09:42:32.950Z,412
2016-12-10T09:43:32.646Z,404
2016-12-10T09:44:33.063Z,400
2016-12-10T09:45:33.282Z,396
2016-12-10T09:46:32.668Z,396
2016-12-10T09:47:33.298Z,396
2016-12-10T09:48:32.990Z,404
2016-12-10T09:49:33.326Z,404
2016-12-10T09:50:32.745Z,400
2016-12-10T09:51:32.700Z,396
2016-12-10T09:52:33.027Z,396
2016-12-10T09:53:32.715Z,400
2016-12-10T09:54:33.080Z,404
2016-12-10T09:55:33.039Z,404
2016-12-10T09:56:33.449Z,412
2016-12-10T09:57:33.983Z,424
2016-12-10T09:58:33.061Z,428
2016-12-10T09:59:33.159Z,432
2016-12-10T10:00:33.443Z,440
2016-12-10T10:01:33.393Z,440
2016-12-10T10:02:33.401Z,444
2016-12-10T10:03:32.474Z,448
2016-12-10T10:04:32.840Z,452
2016-12-10T10:05:33.112Z,460
2016-12-10T10:06:33.122Z,476
2016-12-10T10:07:32.814Z,488
2016-12-10T10:08:34.440Z,496
2016-12-10T10:09:33.450Z,504
2016-12-10T10:10:33.148Z,520
2016-12-10T10:11:33.153Z,540
2016-12-10T10:12:33.161Z,556
2016-12-10T10:13:32.854Z,584
2016-12-10T10:14:32.550Z,616
2016-12-10T10:15:33.494Z,664
2016-12-10T10:16:33.185Z,696
2016-12-10T10:17:33.223Z,672
2016-12-10T10:18:33.203Z,616
2016-12-10T10:19:34.232Z,620
2016-12-10T10:20:33.561Z,612
2016-12-10T10:21:33.532Z,604
2016-12-10T10:22:33.547Z,588
2016-12-10T10:23:32.924Z,568
2016-12-10T10:24:33.257Z,564
2016-12-10T10:25:33.256Z,580
2016-12-10T10:26:32.947Z,608
2016-12-10T10:27:32.949Z,580
2016-12-10T10:28:33.330Z,584
2016-12-10T10:29:33.619Z,592
2016-12-10T10:30:34.285Z,596
2016-12-10T10:31:33.608Z,600
2016-12-10T10:32:33.660Z,612
2016-12-10T10:33:32.998Z,620
2016-12-10T10:34:33.000Z,620
2016-12-10T10:35:33.317Z,604
2016-12-10T10:36:33.379Z,580
2016-12-10T10:37:32.712Z,572
2016-12-10T10:38:33.389Z,568
2016-12-10T10:39:32.729Z,572
2016-12-10T10:40:33.685Z,576
2016-12-10T10:41:34.295Z,576
2016-12-10T10:42:33.377Z,580
2016-12-10T10:43:33.465Z,580
2016-12-10T10:44:33.479Z,580
2016-12-10T10:45:32.811Z,584
2016-12-10T10:46:33.114Z,584
2016-12-10T10:47:33.093Z,588
2016-12-10T10:48:32.786Z,580
2016-12-10T10:49:33.755Z,568
2016-12-10T10:50:33.426Z,564
2016-12-10T10:51:33.440Z,556
2016-12-10T10:52:34.533Z,552
2016-12-10T10:53:33.132Z,544
2016-12-10T10:54:33.455Z,556
2016-12-10T10:55:33.461Z,556
2016-12-10T10:56:34.561Z,552
2016-12-10T10:57:33.817Z,552
2016-12-10T10:58:33.480Z,568
2016-12-10T10:59:33.176Z,564
2016-12-10T11:00:32.871Z,564
2016-12-10T11:01:33.194Z,556
2016-12-10T11:02:33.509Z,544
2016-12-10T11:03:33.505Z,540
2016-12-10T11:04:33.222Z,540
2016-12-10T11:05:33.532Z,544
2016-12-10T11:06:33.557Z,540
2016-12-10T11:07:34.480Z,540
2016-12-10T11:08:33.244Z,544
2016-12-10T11:09:33.607Z,540
2016-12-10T11:10:33.565Z,544
2016-12-10T11:11:33.886Z,544
2016-12-10T11:12:32.956Z,540
2016-12-10T11:13:33.282Z,540
2016-12-10T11:14:33.644Z,540
2016-12-10T11:15:33.339Z,540
2016-12-10T11:16:33.303Z,548
2016-12-10T11:17:33.938Z,552
2016-12-10T11:18:33.879Z,556
2016-12-10T11:19:33.942Z,560
2016-12-10T11:20:33.634Z,568
2016-12-10T11:21:33.644Z,588
2016-12-10T11:22:33.386Z,580
2016-12-10T11:23:33.970Z,564
2016-12-10T11:24:33.732Z,564
2016-12-10T11:25:34.040Z,560
2016-12-10T11:26:33.993Z,556
2016-12-10T11:27:34.790Z,536
2016-12-10T11:28:33.380Z,528
2016-12-10T11:29:33.986Z,528
2016-12-10T11:30:33.395Z,524
2016-12-10T11:31:34.025Z,512
2016-12-10T11:32:33.420Z,508
2016-12-10T11:33:33.732Z,500
2016-12-10T11:34:33.472Z,500
2016-12-10T11:35:34.161Z,496
2016-12-10T11:36:33.813Z,496
2016-12-10T11:37:34.088Z,488
2016-12-10T11:38:33.152Z,488
2016-12-10T11:39:33.508Z,488
2016-12-10T11:40:34.064Z,472
2016-12-10T11:41:34.201Z,444
2016-12-10T11:42:35.128Z,432
2016-12-10T11:43:33.866Z,424
2016-12-10T11:44:34.174Z,432
2016-12-10T11:45:33.910Z,436
2016-12-10T11:46:34.133Z,440
2016-12-10T11:47:33.557Z,444
2016-12-10T11:48:33.572Z,452
2016-12-10T11:49:34.580Z,476
2016-12-10T11:50:33.665Z,484
2016-12-10T11:51:34.255Z,472
2016-12-10T11:52:33.861Z,520
2016-12-10T11:53:35.581Z,488
2016-12-10T11:54:33.561Z,516
2016-12-10T11:55:33.937Z,528
2016-12-10T11:56:33.573Z,564
2016-12-10T11:57:34.215Z,588
2016-12-10T11:58:33.280Z,580
2016-12-10T11:59:33.601Z,584
2016-12-10T12:00:33.923Z,580
2016-12-10T12:01:33.398Z,580
2016-12-10T12:02:33.673Z,600
2016-12-10T12:03:33.936Z,600
2016-12-10T12:04:35.412Z,616
2016-12-10T12:05:33.742Z,556
2016-12-10T12:06:33.963Z,564
2016-12-10T12:07:33.704Z,572
2016-12-10T12:08:34.025Z,600
2016-12-10T12:09:33.670Z,636
2016-12-10T12:10:33.988Z,640
2016-12-10T12:11:33.995Z,620
2016-12-10T12:12:34.317Z,588
2016-12-10T12:13:34.361Z,580
2016-12-10T12:14:33.757Z,560
2016-12-10T12:15:35.749Z,564
2016-12-10T12:16:34.035Z,572
2016-12-10T12:17:34.044Z,604
2016-12-10T12:18:33.736Z,596
2016-12-10T12:19:34.368Z,596
2016-12-10T12:20:33.439Z,592
2016-12-10T12:21:33.806Z,576
2016-12-10T12:22:33.762Z,576
2016-12-10T12:23:34.396Z,580
2016-12-10T12:24:34.029Z,580
2016-12-10T12:25:34.148Z,576
2016-12-10T12:26:35.390Z,572
2016-12-10T12:27:34.429Z,564
2016-12-10T12:28:34.573Z,560
2016-12-10T12:29:34.139Z,552
2016-12-10T12:30:34.500Z,540
2016-12-10T12:31:34.135Z,536
2016-12-10T12:32:34.462Z,540
2016-12-10T12:33:34.466Z,532
2016-12-10T12:34:34.163Z,532
2016-12-10T12:35:34.216Z,528
2016-12-10T12:36:33.915Z,532
2016-12-10T12:37:33.900Z,528
2016-12-10T12:38:33.578Z,532
2016-12-10T12:39:34.696Z,536
2016-12-10T12:40:33.891Z,536
2016-12-10T12:41:33.963Z,536
2016-12-10T12:42:34.528Z,540
2016-12-10T12:43:34.233Z,544
2016-12-10T12:44:34.230Z,524
2016-12-10T12:45:34.246Z,484
2016-12-10T12:46:34.610Z,436
2016-12-10T12:47:34.566Z,376
2016-12-10T12:48:36.007Z,324
2016-12-10T12:49:34.282Z,292
2016-12-10T12:50:34.910Z,264
2016-12-10T12:51:34.338Z,236
2016-12-10T12:52:34.329Z,224
2016-12-10T12:53:34.297Z,224
2016-12-10T12:54:34.348Z,212
2016-12-10T12:55:33.995Z,204
2016-12-10T12:56:34.631Z,196
2016-12-10T12:57:34.372Z,184
2016-12-10T12:58:34.337Z,192
2016-12-10T12:59:34.701Z,192
2016-12-10T13:00:34.658Z,184
2016-12-10T13:01:35.150Z,184
2016-12-10T13:02:34.363Z,172
2016-12-10T13:03:34.366Z,164
2016-12-10T13:04:34.423Z,160
2016-12-10T13:05:33.756Z,160
2016-12-10T13:06:34.072Z,156
2016-12-10T13:07:34.079Z,160
2016-12-10T13:08:34.092Z,160
2016-12-10T13:09:34.090Z,172
2016-12-10T13:10:34.155Z,168
2016-12-10T13:11:34.151Z,164
2016-12-10T13:12:35.139Z,152
2016-12-10T13:13:34.743Z,148
2016-12-10T13:14:34.128Z,140
2016-12-10T13:15:34.443Z,128
2016-12-10T13:16:34.768Z,116
2016-12-10T13:17:34.179Z,112
2016-12-10T13:18:34.466Z,104
2016-12-10T13:19:34.230Z,100
2016-12-10T13:20:34.529Z,96
2016-12-10T13:21:34.180Z,100
2016-12-10T13:22:34.179Z,100
2016-12-10T13:23:35.285Z,100
2016-12-10T13:24:34.821Z,96
2016-12-10T13:25:34.204Z,96
2016-12-10T13:26:34.933Z,160
2016-12-10T13:27:34.542Z,168
2016-12-10T13:28:34.532Z,164
2016-12-10T13:29:34.544Z,160
2016-12-10T13:30:34.860Z,156
2016-12-10T13:31:34.293Z,152
2016-12-10T13:32:33.935Z,148
2016-12-10T13:33:34.570Z,152
2016-12-10T13:34:35.224Z,148
2016-12-10T13:35:34.271Z,148
2016-12-10T13:36:34.590Z,144
2016-12-10T13:37:34.596Z,136
2016-12-10T13:38:34.652Z,136
2016-12-10T13:39:34.347Z,132
2016-12-10T13:40:33.988Z,136
2016-12-10T13:41:34.358Z,136
2016-12-10T13:42:34.947Z,136
2016-12-10T13:43:34.323Z,140
2016-12-10T13:44:34.613Z,140
2016-12-10T13:45:35.065Z,140
2016-12-10T13:46:35.244Z,140
2016-12-10T13:47:36.459Z,140
2016-12-10T13:48:34.672Z,140
2016-12-10T13:49:35.017Z,140
2016-12-10T13:50:34.997Z,148
2016-12-10T13:51:35.006Z,140
2016-12-10T13:52:34.695Z,140
2016-12-10T13:53:34.756Z,136
2016-12-10T13:54:34.767Z,132
2016-12-10T13:55:34.406Z,128
2016-12-10T13:56:35.401Z,132
2016-12-10T13:57:34.426Z,136
2016-12-10T13:58:34.413Z,140
2016-12-10T13:59:34.433Z,144
2016-12-10T14:00:34.454Z,140
2016-12-10T14:01:34.761Z,140
2016-12-10T14:02:34.520Z,140
2016-12-10T14:03:35.140Z,136
2016-12-10T14:04:34.467Z,140
2016-12-10T14:05:34.476Z,140
2016-12-10T14:06:34.486Z,148
2016-12-10T14:07:35.044Z,148
2016-12-10T14:08:35.176Z,148
2016-12-10T14:09:36.701Z,148
2016-12-10T14:10:34.817Z,144
2016-12-10T14:11:35.600Z,136
2016-12-10T14:12:35.154Z,128
2016-12-10T14:13:34.530Z,128
2016-12-10T14:14:34.850Z,128
2016-12-10T14:15:34.546Z,128
2016-12-10T14:16:34.239Z,124
2016-12-10T14:17:34.659Z,124